createdAt,value
2022-08-04T00:08:28.381Z,83.41
2022-08-04T00:18:29.724Z,78.74
2022-08-04T00:28:31.094Z,77.93
2022-08-04T00:38:32.429Z,83.16
2022-08-04T00:48:33.702Z,85.50
2022-08-04T00:58:35.045Z,87.25
2022-08-04T01:08:36.410Z,92.30
2022-08-04T01:18:37.749Z,93.63
2022-08-04T01:28:42.916Z,95.73
2022-08-04T01:38:44.356Z,96.13
2022-08-04T01:48:45.716Z,96.81
2022-08-04T01:58:47.525Z,99.20
2022-08-04T02:08:48.837Z,98.65
2022-08-04T02:18:50.243Z,98.16
2022-08-04T02:28:51.580Z,100.00
2022-08-04T02:38:52.936Z,100.00
2022-08-04T02:48:54.528Z,100.00
2022-08-04T02:58:55.844Z,100.00
2022-08-04T03:08:57.177Z,100.00
2022-08-04T03:18:58.515Z,100.00
2022-08-04T03:29:00.682Z,100.00
2022-08-04T03:39:02.136Z,100.00
2022-08-04T03:49:03.540Z,100.00
2022-08-04T03:59:04.888Z,100.00
2022-08-04T04:09:06.219Z,100.00
2022-08-04T04:19:14.876Z,100.00
2022-08-04T04:29:16.228Z,100.00
2022-08-04T04:39:17.615Z,100.00
2022-08-04T04:49:18.957Z,100.00
2022-08-04T04:59:20.277Z,100.00
2022-08-04T05:09:21.618Z,99.75
2022-08-04T05:19:22.954Z,98.29
2022-08-04T05:29:24.307Z,95.57
2022-08-04T05:39:34.515Z,90.24
2022-08-04T05:49:36.052Z,92.52
2022-08-04T05:59:37.431Z,94.54
2022-08-04T06:09:38.751Z,93.03
2022-08-04T06:19:59.346Z,89.80
2022-08-04T06:30:01.605Z,84.85
2022-08-04T06:40:04.168Z,82.49
2022-08-04T06:51:26.238Z,80.43
2022-08-04T07:00:45.744Z,77.53
2022-08-04T07:10:47.132Z,73.99
2022-08-04T07:20:48.754Z,73.87
2022-08-04T07:30:50.083Z,72.40
2022-08-04T07:40:51.398Z,69.79
2022-08-04T07:50:52.741Z,65.28
2022-08-04T08:00:54.806Z,59.63
2022-08-04T08:10:56.159Z,55.16
2022-08-04T08:20:57.504Z,53.42
2022-08-04T08:30:59.411Z,51.88
2022-08-04T08:41:01.438Z,47.91
2022-08-04T08:51:02.802Z,46.09
2022-08-04T09:01:04.174Z,44.53
2022-08-04T09:11:05.571Z,43.17
2022-08-04T09:21:06.835Z,41.26
2022-08-04T09:31:08.178Z,40.67
2022-08-04T09:41:20.652Z,42.07
2022-08-04T09:51:57.975Z,42.47
2022-08-04T10:02:00.038Z,40.57
2022-08-04T10:12:01.742Z,39.38
2022-08-04T10:22:28.495Z,39.74
2022-08-04T10:32:24.390Z,38.40
2022-08-04T10:42:25.739Z,36.96
2022-08-04T10:52:27.073Z,35.92
2022-08-04T11:02:28.405Z,34.63
2022-08-04T11:12:29.775Z,31.29
2022-08-04T11:22:31.011Z,28.93
2022-08-04T11:32:32.347Z,28.90
2022-08-04T11:42:33.691Z,26.07
2022-08-04T11:52:35.127Z,25.63
2022-08-04T12:02:36.468Z,25.98
2022-08-04T12:12:37.798Z,24.16
2022-08-04T12:22:41.755Z,24.33
2022-08-04T12:32:48.227Z,23.67
2022-08-04T12:42:56.284Z,23.88
2022-08-04T12:53:03.420Z,23.06
2022-08-04T13:03:05.772Z,22.95
2022-08-04T13:13:11.217Z,23.38
2022-08-04T13:23:12.633Z,22.15
2022-08-04T13:33:14.455Z,22.86
2022-08-04T13:43:51.596Z,22.14
2022-08-04T13:53:37.103Z,22.07
2022-08-04T14:03:54.254Z,21.71
2022-08-04T14:13:56.364Z,21.42
2022-08-04T14:23:57.741Z,21.22
2022-08-04T14:34:03.003Z,22.62
2022-08-04T14:44:07.116Z,20.39
2022-08-04T14:54:12.106Z,20.73
2022-08-04T15:04:17.177Z,20.26
2022-08-04T15:14:36.274Z,20.41
2022-08-04T15:24:39.294Z,21.37
2022-08-04T15:34:40.656Z,20.89
2022-08-04T15:44:41.917Z,21.59
2022-08-04T15:54:52.788Z,20.32
2022-08-04T16:04:54.432Z,21.13
2022-08-04T16:14:58.939Z,20.73
2022-08-04T16:25:00.281Z,19.77
2022-08-04T16:35:04.065Z,20.57
2022-08-04T16:45:05.418Z,21.02
2022-08-04T16:55:07.223Z,22.42
2022-08-04T17:05:08.528Z,21.90
2022-08-04T17:15:09.869Z,23.32
2022-08-04T17:25:11.480Z,23.42
2022-08-04T17:35:12.796Z,25.51
2022-08-04T17:55:37.233Z,27.10
2022-08-04T18:06:02.107Z,30.12
2022-08-04T18:15:59.788Z,32.41
2022-08-04T18:26:02.489Z,33.83
2022-08-04T18:36:32.563Z,35.11
2022-08-04T18:46:26.976Z,36.90
2022-08-04T18:56:29.792Z,38.35
2022-08-04T19:06:33.577Z,39.30
2022-08-04T19:16:34.984Z,40.89
2022-08-04T19:26:36.548Z,42.07
2022-08-04T19:36:37.939Z,42.89
2022-08-04T19:46:39.321Z,43.89
2022-08-04T19:56:41.497Z,46.10
2022-08-04T20:06:42.943Z,46.76
2022-08-04T20:16:45.119Z,47.29
2022-08-04T20:26:48.720Z,48.08
2022-08-04T20:36:51.062Z,49.17
2022-08-04T20:46:52.457Z,49.01
2022-08-04T20:56:54.108Z,47.57
2022-08-04T21:06:55.557Z,48.19
2022-08-04T21:16:58.670Z,49.87
2022-08-04T21:27:01.668Z,50.60
2022-08-04T21:37:03.005Z,49.64
2022-08-04T21:47:04.347Z,49.03
2022-08-04T21:57:15.366Z,48.91
2022-08-04T22:07:16.940Z,49.62
2022-08-04T22:17:18.792Z,50.93
2022-08-04T22:27:38.966Z,52.25
2022-08-04T22:37:45.050Z,53.88
2022-08-04T22:48:01.665Z,54.70
2022-08-04T22:58:05.361Z,55.21
2022-08-04T23:08:10.872Z,52.44
2022-08-04T23:18:13.614Z,54.88
2022-08-04T23:28:16.255Z,57.06
2022-08-04T23:38:30.402Z,51.57
2022-08-04T23:48:33.242Z,50.33
2022-08-04T23:58:36.590Z,46.92
